createdAt,value
2019-02-04T00:01:21.009Z,4.70
2019-02-04T00:03:55.909Z,4.60
2019-02-04T00:06:30.711Z,4.60
2019-02-04T00:09:08.478Z,4.60
2019-02-04T00:11:43.295Z,4.70
2019-02-04T00:22:36.065Z,4.70
2019-02-04T00:32:56.787Z,4.50
2019-02-04T00:35:31.588Z,4.40
2019-02-04T00:38:06.375Z,4.10
2019-02-04T00:40:41.246Z,4.10
2019-02-04T00:43:16.026Z,4.20
2019-02-04T00:45:50.750Z,4.30
2019-02-04T00:48:25.495Z,4.40
2019-02-04T00:51:00.217Z,4.40
2019-02-04T00:53:35.107Z,4.40
2019-02-04T00:56:09.810Z,4.40
2019-02-04T00:58:44.538Z,4.40
2019-02-04T01:01:19.398Z,4.40
2019-02-04T01:03:54.118Z,4.50
2019-02-04T01:06:28.983Z,4.50
2019-02-04T01:09:07.919Z,4.40
2019-02-04T01:11:42.722Z,4.40
2019-02-04T01:14:17.450Z,4.40
2019-02-04T01:17:02.978Z,4.40
2019-02-04T01:19:28.670Z,4.40
2019-02-04T01:22:03.560Z,4.40
2019-02-04T01:24:38.278Z,4.40
2019-02-04T01:27:13.003Z,4.40
2019-02-04T01:29:47.799Z,4.40
2019-02-04T01:32:22.506Z,4.40
2019-02-04T01:34:57.231Z,4.40
2019-02-04T01:37:32.158Z,4.50
2019-02-04T01:40:11.290Z,4.40
2019-02-04T01:42:46.086Z,4.50
2019-02-04T01:45:20.894Z,4.50
2019-02-04T01:47:55.761Z,4.50
2019-02-04T01:50:30.622Z,4.50
2019-02-04T01:53:05.425Z,4.50
2019-02-04T02:06:11.350Z,4.40
2019-02-04T02:08:46.426Z,4.40
2019-02-04T02:11:21.250Z,4.30
2019-02-04T02:13:57.031Z,4.30
2019-02-04T02:16:31.830Z,4.20
2019-02-04T02:19:06.622Z,4.10
2019-02-04T02:21:41.373Z,4.00
2019-02-04T02:24:16.078Z,3.70
2019-02-04T02:26:50.809Z,3.80
2019-02-04T02:29:25.601Z,3.90
2019-02-04T02:32:00.335Z,4.00
2019-02-04T02:34:35.096Z,4.00
2019-02-04T02:37:09.806Z,4.10
2019-02-04T02:39:44.526Z,4.10
2019-02-04T02:42:19.271Z,4.20
2019-02-04T02:44:53.984Z,4.20
2019-02-04T02:47:38.067Z,4.10
2019-02-04T02:50:06.773Z,3.90
2019-02-04T02:52:41.496Z,3.90
2019-02-04T02:55:16.594Z,3.80
2019-02-04T02:57:51.463Z,3.90
2019-02-04T03:00:27.919Z,4.00
2019-02-04T03:03:02.643Z,4.10
2019-02-04T03:05:37.362Z,4.10
2019-02-04T03:08:12.095Z,4.10
2019-02-04T03:10:46.891Z,4.10
2019-02-04T03:13:21.628Z,4.10
2019-02-04T03:15:56.400Z,4.10
2019-02-04T03:18:31.115Z,4.10
2019-02-04T03:21:05.857Z,3.80
2019-02-04T03:23:41.407Z,3.70
2019-02-04T03:26:16.210Z,3.80
2019-02-04T03:28:51.122Z,3.80
2019-02-04T03:31:25.910Z,3.70
2019-02-04T03:34:00.690Z,3.80
2019-02-04T03:36:35.562Z,3.80
2019-02-04T03:39:10.456Z,3.90
2019-02-04T03:41:45.243Z,3.80
2019-02-04T03:44:19.959Z,3.90
2019-02-04T03:46:54.686Z,3.90
2019-02-04T03:49:29.774Z,3.90
2019-02-04T03:52:04.759Z,4.00
2019-02-04T03:54:39.474Z,3.90
2019-02-04T03:57:14.356Z,3.90
2019-02-04T03:59:49.526Z,4.00
2019-02-04T04:02:25.427Z,3.90
2019-02-04T04:05:00.211Z,3.90
2019-02-04T04:07:34.950Z,3.90
2019-02-04T04:10:10.643Z,3.90
2019-02-04T04:12:45.458Z,3.50
2019-02-04T04:15:20.318Z,3.60
2019-02-04T04:17:55.191Z,3.50
2019-02-04T04:20:30.067Z,3.50
2019-02-04T04:23:04.926Z,3.40
2019-02-04T04:25:39.719Z,3.30
2019-02-04T04:28:14.732Z,3.40
2019-02-04T04:30:49.538Z,3.40
2019-02-04T04:33:24.448Z,3.50
2019-02-04T04:35:59.228Z,3.50
2019-02-04T04:38:33.955Z,3.50
2019-02-04T04:41:08.738Z,3.50
2019-02-04T04:43:44.090Z,3.50
2019-02-04T04:46:18.828Z,3.50
2019-02-04T04:48:55.674Z,3.40
2019-02-04T04:51:30.043Z,3.40
2019-02-04T04:54:05.041Z,3.40
2019-02-04T04:56:39.829Z,3.40
2019-02-04T04:59:14.540Z,3.40
2019-02-04T05:01:49.314Z,3.30
2019-02-04T05:04:24.050Z,3.30
2019-02-04T05:07:00.628Z,3.30
2019-02-04T05:09:35.322Z,3.30
2019-02-04T05:12:10.203Z,3.30
2019-02-04T05:14:45.098Z,3.30
2019-02-04T05:17:19.829Z,3.00
2019-02-04T05:19:55.662Z,3.00
2019-02-04T05:22:30.411Z,2.80
2019-02-04T05:25:06.479Z,2.50
2019-02-04T05:27:41.282Z,2.20
2019-02-04T05:30:18.327Z,2.00
2019-02-04T05:32:53.218Z,2.00
2019-02-04T05:35:27.961Z,2.20
2019-02-04T05:38:02.772Z,2.20
2019-02-04T05:40:38.652Z,2.20
2019-02-04T05:43:13.527Z,2.30
2019-02-04T05:45:48.416Z,2.20
2019-02-04T05:48:23.219Z,2.40
2019-02-04T05:50:57.962Z,2.50
2019-02-04T05:53:32.762Z,2.50
2019-02-04T05:56:07.611Z,2.60
2019-02-04T05:58:42.427Z,2.60
2019-02-04T06:01:17.230Z,2.60
2019-02-04T06:03:52.040Z,2.70
2019-02-04T06:06:26.755Z,2.70
2019-02-04T06:09:01.484Z,3.10
2019-02-04T06:11:36.384Z,3.40
2019-02-04T06:14:11.158Z,3.30
2019-02-04T06:16:45.951Z,3.20
2019-02-04T06:19:20.745Z,2.60
2019-02-04T06:21:55.506Z,2.60
2019-02-04T06:24:30.471Z,2.50
2019-02-04T06:27:05.386Z,2.50
2019-02-04T06:29:40.119Z,2.50
2019-02-04T06:32:14.911Z,2.40
2019-02-04T06:34:49.638Z,2.30
2019-02-04T06:37:24.498Z,1.90
2019-02-04T06:39:59.223Z,1.80
2019-02-04T06:42:33.958Z,2.10
2019-02-04T06:45:10.685Z,2.20
2019-02-04T06:47:45.825Z,2.30
2019-02-04T06:50:20.810Z,2.30
2019-02-04T06:52:55.680Z,2.30
2019-02-04T06:55:31.766Z,2.30
2019-02-04T06:58:07.582Z,2.20
2019-02-04T07:00:42.386Z,1.90
2019-02-04T07:03:17.166Z,1.60
2019-02-04T07:05:51.899Z,1.40
2019-02-04T07:08:26.619Z,1.80
2019-02-04T07:11:01.450Z,1.80
2019-02-04T07:13:39.239Z,1.80
2019-02-04T07:16:12.782Z,1.90
2019-02-04T07:18:47.495Z,2.00
2019-02-04T07:21:22.290Z,1.90
2019-02-04T07:23:57.008Z,1.90
2019-02-04T07:26:31.755Z,2.00
2019-02-04T07:29:06.535Z,2.10
2019-02-04T07:31:41.410Z,2.10
2019-02-04T07:34:16.138Z,2.10
2019-02-04T07:36:50.940Z,2.20
2019-02-04T07:39:25.661Z,2.20
2019-02-04T07:42:00.454Z,2.20
2019-02-04T07:44:35.163Z,2.20
2019-02-04T07:47:10.032Z,2.20
2019-02-04T07:49:44.902Z,2.10
2019-02-04T07:52:19.639Z,2.20
2019-02-04T07:54:54.354Z,2.30
2019-02-04T07:57:29.131Z,2.30
2019-02-04T08:00:04.567Z,2.30
2019-02-04T08:02:39.442Z,2.40
2019-02-04T08:05:14.338Z,2.30
2019-02-04T08:07:49.227Z,2.40
2019-02-04T08:10:24.030Z,2.40
2019-02-04T08:13:01.682Z,2.60
2019-02-04T08:15:37.144Z,2.60
2019-02-04T08:18:15.218Z,2.60
2019-02-04T08:20:49.930Z,2.60
2019-02-04T08:23:25.131Z,2.60
2019-02-04T08:25:59.842Z,2.70
2019-02-04T08:28:40.668Z,2.80
2019-02-04T08:31:15.453Z,2.80
2019-02-04T08:33:50.359Z,2.90
2019-02-04T08:36:25.222Z,2.90
2019-02-04T08:39:00.100Z,3.00
2019-02-04T08:41:34.882Z,3.00
2019-02-04T08:44:10.040Z,3.10
2019-02-04T08:46:45.818Z,3.10
2019-02-04T08:49:20.579Z,3.10
2019-02-04T08:51:55.376Z,3.30
2019-02-04T08:54:33.640Z,3.20
2019-02-04T08:57:08.623Z,3.30
2019-02-04T08:59:43.398Z,3.30
2019-02-04T09:02:18.214Z,3.30
2019-02-04T09:04:54.471Z,3.40
2019-02-04T09:07:29.273Z,3.30
2019-02-04T09:10:06.082Z,3.30
2019-02-04T09:12:40.886Z,3.20
2019-02-04T09:15:16.488Z,3.10
2019-02-04T09:17:51.659Z,3.30
2019-02-04T09:20:26.729Z,3.40
2019-02-04T09:23:01.588Z,3.40
2019-02-04T09:25:36.819Z,3.40
2019-02-04T09:28:11.544Z,3.50
2019-02-04T09:30:46.587Z,3.50
2019-02-04T09:33:21.500Z,3.60
2019-02-04T09:35:56.290Z,3.60
2019-02-04T09:38:31.124Z,3.60
2019-02-04T09:41:05.966Z,3.60
2019-02-04T09:43:40.762Z,3.60
2019-02-04T09:46:15.474Z,3.60
2019-02-04T09:48:50.195Z,3.60
2019-02-04T09:51:25.051Z,3.70
2019-02-04T09:53:59.926Z,3.60
2019-02-04T10:00:18.724Z,3.60
2019-02-04T10:02:53.507Z,3.70
2019-02-04T10:05:28.454Z,3.80
2019-02-04T10:08:05.719Z,3.70
2019-02-04T10:10:43.477Z,3.80
2019-02-04T10:13:18.311Z,3.90
2019-02-04T10:15:53.334Z,4.00
2019-02-04T10:18:28.570Z,4.20
2019-02-04T10:21:03.579Z,4.10
2019-02-04T10:23:38.458Z,4.20
2019-02-04T10:26:13.910Z,4.30
2019-02-04T10:28:48.702Z,4.30
2019-02-04T10:31:23.622Z,4.20
2019-02-04T10:33:58.576Z,4.30
2019-02-04T10:36:33.497Z,4.40
2019-02-04T10:39:09.441Z,4.30
2019-02-04T10:41:47.192Z,4.20
2019-02-04T10:44:22.119Z,4.30
2019-02-04T10:46:57.131Z,4.30
2019-02-04T10:49:32.068Z,4.30
2019-02-04T10:52:07.009Z,4.40
2019-02-04T10:54:42.091Z,4.40
2019-02-04T10:57:16.906Z,4.50
2019-02-04T10:59:51.739Z,4.30
2019-02-04T11:02:26.650Z,4.40
2019-02-04T11:05:01.528Z,4.40
2019-02-04T11:07:37.479Z,4.40
2019-02-04T11:10:12.903Z,4.50
2019-02-04T11:12:47.812Z,4.50
2019-02-04T11:15:25.514Z,4.50
2019-02-04T11:17:59.590Z,4.60
2019-02-04T11:20:36.201Z,4.80
2019-02-04T11:23:11.371Z,4.80
2019-02-04T11:25:50.610Z,4.80
2019-02-04T11:28:25.673Z,4.90
2019-02-04T11:31:02.672Z,4.90
2019-02-04T11:33:37.374Z,4.80
2019-02-04T11:36:12.381Z,5.00
2019-02-04T11:38:47.381Z,5.00
2019-02-04T11:41:22.316Z,5.00
2019-02-04T11:44:08.737Z,4.90
2019-02-04T11:46:43.798Z,4.80
2019-02-04T11:49:21.622Z,5.00
2019-02-04T11:51:56.567Z,4.90
2019-02-04T11:54:31.298Z,5.10
2019-02-04T11:57:06.362Z,5.30
2019-02-04T11:59:41.180Z,5.30
2019-02-04T12:02:16.243Z,5.30
2019-02-04T12:04:51.127Z,5.10
2019-02-04T12:07:26.219Z,5.20
2019-02-04T12:10:04.886Z,5.40
2019-02-04T12:12:39.756Z,5.30
2019-02-04T12:15:15.954Z,5.10
2019-02-04T12:17:51.283Z,5.30
2019-02-04T12:20:26.216Z,5.80
2019-02-04T12:23:01.046Z,5.70
2019-02-04T12:25:35.927Z,5.80
2019-02-04T12:28:10.907Z,5.70
2019-02-04T12:30:45.777Z,5.90
2019-02-04T12:33:20.673Z,5.70
2019-02-04T12:35:55.794Z,5.80
2019-02-04T12:38:30.618Z,5.80
2019-02-04T12:41:05.603Z,5.80
2019-02-04T12:43:41.523Z,5.80
2019-02-04T12:54:45.187Z,6.00
2019-02-04T12:57:19.980Z,5.90
2019-02-04T12:59:58.914Z,6.00
2019-02-04T13:02:34.728Z,6.10
2019-02-04T13:05:12.023Z,5.90
2019-02-04T13:07:47.107Z,6.10
2019-02-04T13:10:22.149Z,6.10
2019-02-04T13:12:57.042Z,6.00
2019-02-04T13:15:34.139Z,6.10
2019-02-04T13:18:09.851Z,6.10
2019-02-04T13:20:44.860Z,6.20
2019-02-04T13:26:13.802Z,6.30
2019-02-04T13:28:49.157Z,6.30
2019-02-04T13:31:24.299Z,6.10
2019-02-04T13:33:59.226Z,6.20
2019-02-04T13:36:34.202Z,6.30
2019-02-04T13:39:10.171Z,6.50
2019-02-04T13:41:46.230Z,6.40
2019-02-04T13:44:21.134Z,6.20
2019-02-04T13:46:55.983Z,6.30
2019-02-04T13:49:31.264Z,6.50
2019-02-04T13:52:06.203Z,6.60
2019-02-04T13:54:41.207Z,6.60
2019-02-04T13:57:15.950Z,6.70
2019-02-04T13:59:51.053Z,6.70
2019-02-04T14:02:26.308Z,6.60
2019-02-04T14:05:01.374Z,6.40
2019-02-04T14:11:04.625Z,6.40
2019-02-04T14:13:39.591Z,6.40
2019-02-04T14:16:14.678Z,6.30
2019-02-04T14:18:49.555Z,6.30
2019-02-04T14:21:24.434Z,6.20
2019-02-04T14:23:59.514Z,6.40
2019-02-04T14:26:35.544Z,6.40
2019-02-04T14:29:10.410Z,6.40
2019-02-04T14:31:45.599Z,6.40
2019-02-04T14:34:20.460Z,6.50
2019-02-04T14:36:56.459Z,6.70
2019-02-04T14:39:31.339Z,6.70
2019-02-04T14:42:10.279Z,6.50
2019-02-04T14:45:08.259Z,6.60
2019-02-04T14:48:05.637Z,6.70
2019-02-04T14:50:52.098Z,6.60
2019-02-04T14:54:09.783Z,6.50
2019-02-04T14:57:08.377Z,6.40
2019-02-04T14:59:51.266Z,6.40
2019-02-04T15:02:59.799Z,6.40
2019-02-04T15:06:09.952Z,6.40
2019-02-04T15:09:41.240Z,6.40
2019-02-04T15:12:34.794Z,6.40
2019-02-04T15:15:17.275Z,6.50
2019-02-04T15:18:17.054Z,6.60
2019-02-04T15:21:36.353Z,6.50
2019-02-04T15:25:17.230Z,6.50
2019-02-04T15:28:16.630Z,6.50
2019-02-04T15:31:19.764Z,6.60
2019-02-04T15:34:32.662Z,6.60
2019-02-04T15:37:25.334Z,6.60
2019-02-04T15:40:18.312Z,6.50
2019-02-04T15:43:36.339Z,6.70
2019-02-04T15:46:36.752Z,6.70
2019-02-04T15:50:06.370Z,6.80
2019-02-04T15:52:45.599Z,6.80
2019-02-04T15:55:20.012Z,6.80
2019-02-04T15:57:54.852Z,6.80
2019-02-04T16:00:29.798Z,6.70
2019-02-04T16:03:04.774Z,6.80
2019-02-04T16:05:39.610Z,6.90
2019-02-04T16:08:14.564Z,6.80
2019-02-04T16:10:49.469Z,6.80
2019-02-04T16:13:24.347Z,6.80
2019-02-04T16:15:59.501Z,6.70
2019-02-04T16:18:34.227Z,6.60
2019-02-04T16:21:10.115Z,6.60
2019-02-04T16:23:44.955Z,6.60
2019-02-04T16:26:19.755Z,6.60
2019-02-04T16:28:54.705Z,6.50
2019-02-04T16:31:29.656Z,6.40
2019-02-04T16:34:04.989Z,6.40
2019-02-04T16:36:39.944Z,6.30
2019-02-04T16:39:16.051Z,6.30
2019-02-04T16:41:51.131Z,6.30
2019-02-04T16:44:26.057Z,6.40
2019-02-04T16:47:01.091Z,6.30
2019-02-04T16:49:35.950Z,6.30
2019-02-04T16:52:10.826Z,6.10
2019-02-04T16:54:45.863Z,6.10
2019-02-04T16:57:20.752Z,6.10
2019-02-04T16:59:55.571Z,6.00
2019-02-04T17:02:30.380Z,6.10
2019-02-04T17:05:08.547Z,6.00
2019-02-04T17:07:43.642Z,6.70
2019-02-04T17:10:20.136Z,6.50
2019-02-04T17:12:55.226Z,6.30
2019-02-04T17:15:30.782Z,6.30
2019-02-04T17:18:06.085Z,6.30
2019-02-04T17:20:41.111Z,6.10
2019-02-04T17:23:22.456Z,6.10
2019-02-04T17:25:52.758Z,6.10
2019-02-04T17:28:27.757Z,6.10
2019-02-04T17:31:02.903Z,5.90
2019-02-04T17:33:37.719Z,6.00
2019-02-04T17:36:13.194Z,5.90
2019-02-04T17:38:49.172Z,5.90
2019-02-04T17:41:24.139Z,5.90
2019-02-04T17:43:59.970Z,5.90
2019-02-04T17:46:35.124Z,5.90
2019-02-04T17:49:09.931Z,5.80
2019-02-04T17:51:44.683Z,5.80
2019-02-04T17:54:19.515Z,5.70
2019-02-04T17:56:54.799Z,5.70
2019-02-04T17:59:29.616Z,5.70
2019-02-04T18:02:04.628Z,5.70
2019-02-04T18:04:39.514Z,5.60
2019-02-04T18:07:20.628Z,5.40
2019-02-04T18:09:55.611Z,5.30
2019-02-04T18:12:30.548Z,5.30
2019-02-04T18:15:07.519Z,5.10
2019-02-04T18:17:42.507Z,5.00
2019-02-04T18:20:17.615Z,5.00
2019-02-04T18:22:52.550Z,5.00
2019-02-04T18:25:27.615Z,5.10
2019-02-04T18:28:02.732Z,5.10
2019-02-04T18:30:38.212Z,5.10
2019-02-04T18:33:13.042Z,5.00
2019-02-04T18:35:49.366Z,5.10
2019-02-04T18:38:24.166Z,5.10
2019-02-04T18:40:59.578Z,5.10
2019-02-04T18:43:34.416Z,5.00
2019-02-04T18:46:09.414Z,5.10
2019-02-04T18:48:44.827Z,5.00
2019-02-04T18:51:19.811Z,4.90
2019-02-04T18:53:57.833Z,4.80
2019-02-04T18:56:31.371Z,4.70
2019-02-04T18:59:06.231Z,4.40
2019-02-04T19:01:41.047Z,4.40
2019-02-04T19:04:17.694Z,4.40
2019-02-04T19:06:52.595Z,4.20
2019-02-04T19:09:27.507Z,4.00
2019-02-04T19:12:02.663Z,4.30
2019-02-04T19:14:37.671Z,4.40
2019-02-04T19:17:12.611Z,4.60
2019-02-04T19:22:41.475Z,4.60
2019-02-04T19:25:16.871Z,4.70
2019-02-04T19:27:52.765Z,4.80
2019-02-04T19:30:58.326Z,4.80
2019-02-04T19:33:33.218Z,4.90
2019-02-04T19:36:09.711Z,5.00
2019-02-04T19:38:45.902Z,4.80
2019-02-04T19:41:20.863Z,4.80
2019-02-04T19:43:55.755Z,4.80
2019-02-04T19:46:30.828Z,4.80
2019-02-04T19:49:06.349Z,5.10
2019-02-04T19:51:41.270Z,5.10
2019-02-04T19:54:21.586Z,4.90
2019-02-04T19:56:54.820Z,4.90
2019-02-04T19:59:30.013Z,4.80
2019-02-04T20:02:05.760Z,4.50
2019-02-04T20:04:40.507Z,4.70
2019-02-04T20:07:15.688Z,4.60
2019-02-04T20:09:51.080Z,4.50
2019-02-04T20:12:26.941Z,4.60
2019-02-04T20:15:02.166Z,4.60
2019-02-04T20:17:38.248Z,4.50
2019-02-04T20:20:13.271Z,4.60
2019-02-04T20:22:48.141Z,4.50
2019-02-04T20:25:25.035Z,4.50
2019-02-04T20:28:00.173Z,4.50
2019-02-04T20:30:45.459Z,4.20
2019-02-04T20:33:14.263Z,4.40
2019-02-04T20:35:49.229Z,4.50
2019-02-04T20:38:27.194Z,4.50
2019-02-04T20:41:00.429Z,4.60
2019-02-04T20:43:35.163Z,4.60
2019-02-04T20:46:09.922Z,4.70
2019-02-04T20:48:44.843Z,4.70
2019-02-04T20:51:19.719Z,4.70
2019-02-04T20:53:54.458Z,4.70
2019-02-04T20:56:29.259Z,4.80
2019-02-04T20:59:04.478Z,4.70
2019-02-04T21:01:39.296Z,4.60
2019-02-04T21:04:14.108Z,4.70
2019-02-04T21:06:55.664Z,5.50
2019-02-04T21:09:25.343Z,5.40
2019-02-04T21:12:00.147Z,5.10
2019-02-04T21:14:34.888Z,4.90
2019-02-04T21:17:09.696Z,4.80
2019-02-04T21:19:44.427Z,4.70
2019-02-04T21:22:19.308Z,4.70
2019-02-04T21:24:56.492Z,4.70
2019-02-04T21:27:30.723Z,4.70
2019-02-04T21:30:11.396Z,4.70
2019-02-04T21:32:46.515Z,4.70
2019-02-04T21:35:22.612Z,4.60
2019-02-04T21:37:57.530Z,4.60
2019-02-04T21:40:32.832Z,4.70
2019-02-04T21:43:07.704Z,4.70
2019-02-04T21:45:44.078Z,4.70
2019-02-04T21:48:18.803Z,4.60
2019-02-04T21:50:53.994Z,4.60
2019-02-04T21:53:29.690Z,4.60
2019-02-04T21:56:05.581Z,4.60
2019-02-04T21:58:40.331Z,4.50
2019-02-04T22:01:15.528Z,4.60
2019-02-04T22:03:50.347Z,4.50
2019-02-04T22:06:25.196Z,4.60
2019-02-04T22:08:59.979Z,4.50
2019-02-04T22:11:34.789Z,4.40
2019-02-04T22:14:10.206Z,4.50
2019-02-04T22:16:44.930Z,4.60
2019-02-04T22:19:20.039Z,4.50
2019-02-04T22:21:54.762Z,4.40
2019-02-04T22:24:29.498Z,4.40
2019-02-04T22:27:04.475Z,4.30
2019-02-04T22:29:39.213Z,4.40
2019-02-04T22:32:14.193Z,4.40
2019-02-04T22:34:49.292Z,4.40
2019-02-04T22:37:24.095Z,4.40
2019-02-04T22:39:58.834Z,4.40
2019-02-04T22:42:33.644Z,4.40
2019-02-04T22:45:09.798Z,4.40
2019-02-04T22:47:44.679Z,4.30
2019-02-04T22:50:22.374Z,4.20
2019-02-04T22:52:57.291Z,4.20
2019-02-04T22:55:32.796Z,4.30
2019-02-04T22:58:07.924Z,4.30
2019-02-04T23:00:51.426Z,4.30
2019-02-04T23:03:26.958Z,4.30
2019-02-04T23:06:01.843Z,4.40
2019-02-04T23:08:36.566Z,4.40
2019-02-04T23:11:11.459Z,4.40
2019-02-04T23:13:46.251Z,4.30
2019-02-04T23:16:21.075Z,4.30
2019-02-04T23:18:55.795Z,4.30
2019-02-04T23:21:30.610Z,4.30
2019-02-04T23:24:06.719Z,4.30
2019-02-04T23:26:41.459Z,4.40
2019-02-04T23:29:16.344Z,4.30
2019-02-04T23:31:51.219Z,4.20
2019-02-04T23:34:26.015Z,4.20
2019-02-04T23:37:00.843Z,4.20
2019-02-04T23:39:35.631Z,4.20
2019-02-04T23:42:10.516Z,4.10
2019-02-04T23:44:45.397Z,4.10
2019-02-04T23:47:20.212Z,4.10
2019-02-04T23:49:55.007Z,4.20
2019-02-04T23:52:29.744Z,4.20
2019-02-04T23:55:05.407Z,4.00
2019-02-04T23:57:40.133Z,4.00
